Time;durP1;ratioP1;P1;durP2;ratioP2;P2;SDS_P1;SDS_P2;PMS_P1;PMS_P2;Temp;Humidity;BMP_temperature;BMP_pressure;BME280_temperature;BME280_humidity;BME280_pressure;Samples;Min_cycle;Max_cycle;Signal;HPM_P1;HPM_P2
2022/11/26 00:02:27;;;;;;;11.32;4.85;;;6.50;99.90;;;;;;4957957;28;20023;-72
2022/11/26 00:04:54;;;;;;;12.25;4.80;;;6.60;99.90;;;;;;4954224;28;20034;-72
2022/11/26 00:07:24;;;;;;;19.52;5.22;;;6.60;99.90;;;;;;4959481;28;20054;-72
2022/11/26 00:09:51;;;;;;;16.35;5.40;;;6.60;99.90;;;;;;4957079;28;20030;-72
2022/11/26 00:12:20;;;;;;;19.45;5.03;;;6.50;99.90;;;;;;4960095;28;20035;-72
2022/11/26 00:14:46;;;;;;;20.00;6.05;;;6.60;99.90;;;;;;4956539;28;20114;-72
2022/11/26 00:17:15;;;;;;;17.77;5.75;;;6.60;99.90;;;;;;4960332;28;20106;-72
2022/11/26 00:19:43;;;;;;;18.42;5.68;;;6.60;99.90;;;;;;4936352;28;21614;-72
2022/11/26 00:22:18;;;;;;;19.13;5.85;;;6.60;99.90;;;;;;4960731;28;20034;-72
2022/11/26 00:24:44;;;;;;;15.15;4.70;;;6.60;99.90;;;;;;4959667;28;20026;-72
2022/11/26 00:27:10;;;;;;;16.40;5.22;;;6.60;99.90;;;;;;4935133;28;20027;-73
2022/11/26 00:29:36;;;;;;;17.13;5.53;;;6.60;99.90;;;;;;4960552;28;20293;-72
2022/11/26 00:32:02;;;;;;;22.02;5.75;;;6.60;99.90;;;;;;4959374;28;20246;-72
2022/11/26 00:34:27;;;;;;;14.52;5.38;;;6.60;99.90;;;;;;4958753;28;20088;-72
2022/11/26 00:36:53;;;;;;;13.57;4.40;;;6.50;99.90;;;;;;4960470;28;20112;-72
2022/11/26 00:39:23;;;;;;;10.73;5.18;;;6.50;99.90;;;;;;4959141;28;20058;-72
2022/11/26 00:41:52;;;;;;;17.33;6.00;;;6.50;99.90;;;;;;4958250;28;20045;-72
2022/11/26 00:44:23;;;;;;;13.75;5.50;;;6.30;99.90;;;;;;4957317;28;20656;-72
2022/11/26 00:46:50;;;;;;;12.18;4.60;;;6.30;99.90;;;;;;4957295;28;20482;-72
2022/11/26 00:49:16;;;;;;;13.20;5.03;;;6.30;99.90;;;;;;4941952;28;20453;-72
2022/11/26 00:51:43;;;;;;;13.75;5.57;;;6.30;99.90;;;;;;4962091;28;20106;-72
2022/11/26 00:54:12;;;;;;;16.55;5.55;;;6.10;99.90;;;;;;4953590;28;20120;-72
2022/11/26 00:56:38;;;;;;;12.32;4.88;;;5.90;99.90;;;;;;4957508;28;20133;-72
2022/11/26 00:59:04;;;;;;;13.52;5.03;;;5.80;99.90;;;;;;4960521;28;20043;-72
2022/11/26 01:01:31;;;;;;;17.45;5.97;;;5.80;99.90;;;;;;4960552;28;20061;-73
2022/11/26 01:03:58;;;;;;;12.38;5.85;;;5.70;99.90;;;;;;4964094;28;20022;-72
2022/11/26 01:06:30;;;;;;;22.05;6.13;;;5.70;99.90;;;;;;4954933;28;20048;-72
2022/11/26 01:08:56;;;;;;;22.27;7.88;;;5.70;99.90;;;;;;4955903;28;20149;-72
2022/11/26 01:11:23;;;;;;;20.92;7.57;;;5.60;99.90;;;;;;4955088;28;20034;-72
2022/11/26 01:13:52;;;;;;;17.20;6.75;;;5.50;99.90;;;;;;4959747;28;20030;-72
2022/11/26 01:16:28;;;;;;;19.95;7.43;;;5.50;99.90;;;;;;4958239;28;20058;-72
2022/11/26 01:18:55;;;;;;;24.85;7.82;;;5.50;99.90;;;;;;4959595;28;20039;-72
2022/11/26 01:21:22;;;;;;;16.63;6.95;;;5.50;99.90;;;;;;4958766;28;20118;-73
2022/11/26 01:23:48;;;;;;;24.00;8.15;;;5.60;99.90;;;;;;4949171;28;20039;-72
2022/11/26 01:26:16;;;;;;;20.70;7.20;;;5.60;99.90;;;;;;4957593;28;20445;-73
2022/11/26 01:28:43;;;;;;;21.25;7.05;;;5.70;99.90;;;;;;4963146;28;20140;-72
2022/11/26 01:31:18;;;;;;;17.27;6.78;;;5.80;99.90;;;;;;4952339;28;20026;-72
2022/11/26 01:33:44;;;;;;;20.30;7.97;;;5.80;99.90;;;;;;4953428;28;20027;-72
2022/11/26 01:36:18;;;;;;;19.77;7.15;;;5.90;99.90;;;;;;4957621;28;20580;-72
2022/11/26 01:38:43;;;;;;;18.42;6.65;;;6.00;99.90;;;;;;4955839;28;20038;-73
2022/11/26 01:41:28;;;;;;;17.88;7.00;;;6.00;99.90;;;;;;4955068;28;20562;-72
2022/11/26 01:43:56;;;;;;;18.17;6.88;;;6.10;99.90;;;;;;4961117;28;20443;-71
2022/11/26 01:46:25;;;;;;;17.35;6.55;;;6.10;99.90;;;;;;4957826;28;20034;-72
2022/11/26 01:48:51;;;;;;;26.08;7.28;;;6.10;99.90;;;;;;4958642;28;20053;-72
2022/11/26 01:51:24;;;;;;;20.17;6.72;;;6.20;99.90;;;;;;4941032;28;20141;-72
2022/11/26 01:53:53;;;;;;;22.65;7.03;;;6.10;99.90;;;;;;4960138;28;20023;-73
2022/11/26 01:56:19;;;;;;;20.75;6.68;;;6.20;99.90;;;;;;4959950;28;20437;-72
2022/11/26 01:58:52;;;;;;;20.35;6.07;;;6.20;99.90;;;;;;4957498;28;20035;-72
2022/11/26 02:01:18;;;;;;;18.50;7.30;;;6.30;99.90;;;;;;4955835;28;20027;-72
2022/11/26 02:03:56;;;;;;;14.65;5.78;;;6.30;99.90;;;;;;4955599;28;20030;-72
2022/11/26 02:06:28;;;;;;;24.20;6.45;;;6.40;99.90;;;;;;4959243;28;20268;-72
2022/11/26 02:08:55;;;;;;;14.18;5.68;;;6.40;99.90;;;;;;4958210;28;20504;-72
2022/11/26 02:11:23;;;;;;;19.00;7.18;;;6.40;99.90;;;;;;4956096;28;20041;-73
2022/11/26 02:13:51;;;;;;;24.30;6.75;;;6.40;99.90;;;;;;4957144;28;20462;-72
2022/11/26 02:16:48;;;;;;;14.52;6.68;;;6.40;99.90;;;;;;4957447;28;20080;-73
2022/11/26 02:19:45;;;;;;;22.48;6.82;;;6.40;99.90;;;;;;4955381;28;20619;-72
2022/11/26 02:22:39;;;;;;;15.05;6.25;;;6.50;99.90;;;;;;4958653;28;20035;-72
2022/11/26 02:25:16;;;;;;;17.73;5.88;;;6.50;99.90;;;;;;4944885;28;20027;-72
2022/11/26 02:28:13;;;;;;;17.50;6.93;;;6.50;99.90;;;;;;4957546;28;20161;-72
2022/11/26 02:30:47;;;;;;;15.23;5.97;;;6.50;99.90;;;;;;4954702;28;20623;-72
2022/11/26 02:33:22;;;;;;;19.25;6.78;;;6.60;99.90;;;;;;4943012;28;20031;-72
2022/11/26 02:35:55;;;;;;;14.45;5.40;;;6.50;99.90;;;;;;4951221;28;20030;-73
2022/11/26 02:38:29;;;;;;;13.07;6.03;;;6.50;99.90;;;;;;4959087;28;20117;-72
2022/11/26 02:40:55;;;;;;;17.33;6.00;;;6.50;99.90;;;;;;4947909;28;20027;-72
2022/11/26 02:43:22;;;;;;;17.77;6.20;;;6.60;99.90;;;;;;4957726;28;20039;-72
2022/11/26 02:45:57;;;;;;;23.20;6.80;;;6.60;99.90;;;;;;4956453;28;20411;-73
2022/11/26 02:48:30;;;;;;;13.85;5.43;;;6.60;99.90;;;;;;4954472;28;20524;-72
2022/11/26 02:50:59;;;;;;;17.90;6.35;;;6.60;99.90;;;;;;4951612;28;20469;-72
2022/11/26 02:53:27;;;;;;;17.02;6.13;;;6.70;99.90;;;;;;4959758;28;20329;-73
2022/11/26 02:56:20;;;;;;;16.73;6.45;;;6.70;99.90;;;;;;4940411;28;20117;-72
2022/11/26 02:58:47;;;;;;;19.60;6.50;;;6.80;99.90;;;;;;4960187;28;20051;-73
2022/11/26 03:01:19;;;;;;;17.95;5.70;;;6.80;99.90;;;;;;4954723;28;20066;-73
2022/11/26 03:03:49;;;;;;;14.90;5.72;;;6.80;99.90;;;;;;4955078;28;20535;-72
2022/11/26 03:06:17;;;;;;;19.63;6.50;;;6.80;99.90;;;;;;4955773;28;20023;-72
2022/11/26 03:08:44;;;;;;;10.90;5.45;;;6.80;99.90;;;;;;4958347;28;20757;-72
2022/11/26 03:11:10;;;;;;;16.45;6.40;;;6.90;99.90;;;;;;4953446;28;20031;-72
2022/11/26 03:13:35;;;;;;;24.85;8.45;;;6.90;99.90;;;;;;4958228;28;20382;-73
2022/11/26 03:16:01;;;;;;;24.77;7.03;;;6.80;99.90;;;;;;4959214;28;20054;-73
2022/11/26 03:18:27;;;;;;;20.60;6.57;;;6.90;99.90;;;;;;4952635;28;20094;-73
2022/11/26 03:20:53;;;;;;;20.35;8.13;;;6.90;99.90;;;;;;4953125;28;20030;-72
2022/11/26 03:23:18;;;;;;;28.00;8.68;;;6.90;99.90;;;;;;4959437;28;20011;-72
2022/11/26 03:25:44;;;;;;;24.38;8.18;;;6.70;99.90;;;;;;4940165;28;20509;-72
2022/11/26 03:28:09;;;;;;;21.58;7.72;;;6.70;99.90;;;;;;4959844;28;20057;-73
2022/11/26 03:30:35;;;;;;;16.25;6.55;;;6.70;99.90;;;;;;4954024;28;20521;-73
2022/11/26 03:33:01;;;;;;;22.60;7.63;;;6.70;99.90;;;;;;4962019;28;20404;-73
2022/11/26 03:35:26;;;;;;;16.70;6.32;;;6.70;99.90;;;;;;4960573;28;20048;-72
2022/11/26 03:37:52;;;;;;;13.73;6.30;;;6.60;99.90;;;;;;4960976;28;20054;-73
2022/11/26 03:40:18;;;;;;;22.30;8.15;;;6.60;99.90;;;;;;4949865;28;20054;-73
2022/11/26 03:42:44;;;;;;;24.17;8.23;;;6.60;99.90;;;;;;4959992;28;20400;-73
2022/11/26 03:45:10;;;;;;;27.85;8.70;;;6.50;99.90;;;;;;4957623;28;20097;-73
2022/11/26 03:47:36;;;;;;;26.05;10.23;;;6.50;99.90;;;;;;4958703;28;20297;-73
2022/11/26 03:50:03;;;;;;;24.55;8.73;;;6.50;99.90;;;;;;4959783;28;20125;-72
2022/11/26 03:52:29;;;;;;;31.00;9.20;;;6.50;99.90;;;;;;4956927;28;20038;-73
2022/11/26 03:54:54;;;;;;;22.48;8.32;;;6.50;99.90;;;;;;4961160;28;20465;-73
2022/11/26 03:57:21;;;;;;;28.42;10.20;;;6.40;99.90;;;;;;4958081;28;20219;-72
2022/11/26 03:59:46;;;;;;;21.60;8.38;;;6.40;99.90;;;;;;4933789;28;20054;-73
2022/11/26 04:02:12;;;;;;;18.77;7.43;;;6.40;99.90;;;;;;4961355;28;20035;-72
2022/11/26 04:04:38;;;;;;;16.58;6.97;;;6.40;99.90;;;;;;4961843;28;20046;-72
2022/11/26 04:07:03;;;;;;;21.33;7.65;;;6.50;99.90;;;;;;4959514;28;20054;-73
2022/11/26 04:09:29;;;;;;;25.65;7.60;;;6.50;99.90;;;;;;4967157;28;20035;-73
2022/11/26 04:11:55;;;;;;;20.95;7.53;;;6.50;99.90;;;;;;4964694;28;20019;-72
2022/11/26 04:14:20;;;;;;;19.02;7.20;;;6.40;99.90;;;;;;4962566;28;20035;-72
2022/11/26 04:16:46;;;;;;;21.38;7.35;;;6.50;99.90;;;;;;4965585;28;20045;-73
2022/11/26 04:19:12;;;;;;;23.17;7.60;;;6.40;99.90;;;;;;4962759;28;20115;-73
2022/11/26 04:21:37;;;;;;;21.35;7.95;;;6.40;99.90;;;;;;4960911;28;20067;-73
2022/11/26 04:24:03;;;;;;;22.90;7.95;;;6.40;99.90;;;;;;4962504;28;20494;-73
2022/11/26 04:26:28;;;;;;;22.48;8.27;;;6.40;99.90;;;;;;4963858;28;20531;-73
2022/11/26 04:28:54;;;;;;;22.38;8.55;;;6.30;99.90;;;;;;4965539;28;20094;-72
2022/11/26 04:31:20;;;;;;;20.55;7.10;;;6.40;99.90;;;;;;4968810;28;20141;-73
2022/11/26 04:33:45;;;;;;;21.27;7.75;;;6.40;99.90;;;;;;4949973;28;20098;-73
2022/11/26 04:36:11;;;;;;;16.17;7.20;;;6.40;99.90;;;;;;4969249;28;20129;-73
2022/11/26 04:38:37;;;;;;;22.55;7.50;;;6.40;99.90;;;;;;4966313;28;20046;-72
2022/11/26 04:41:03;;;;;;;21.08;7.00;;;6.50;99.90;;;;;;4967011;28;20105;-73
2022/11/26 04:43:28;;;;;;;22.50;7.28;;;6.50;99.90;;;;;;4963663;28;20559;-72
2022/11/26 04:45:54;;;;;;;20.67;6.95;;;6.50;99.90;;;;;;4967456;28;20027;-72
2022/11/26 04:48:19;;;;;;;18.15;6.32;;;6.60;99.90;;;;;;4966526;28;20058;-72
2022/11/26 04:50:45;;;;;;;16.55;6.32;;;6.50;99.90;;;;;;4947675;28;20490;-72
2022/11/26 04:53:11;;;;;;;23.15;6.65;;;6.60;99.90;;;;;;4969972;28;20050;-72
2022/11/26 04:55:37;;;;;;;19.33;6.35;;;6.60;99.90;;;;;;4965996;28;20071;-72
2022/11/26 04:58:02;;;;;;;21.50;6.28;;;6.60;99.90;;;;;;4965842;28;20053;-73
2022/11/26 05:00:28;;;;;;;19.00;5.93;;;6.60;99.90;;;;;;4961227;28;20035;-72
2022/11/26 05:02:54;;;;;;;17.52;5.80;;;6.60;99.90;;;;;;4951064;28;20027;-73
2022/11/26 05:05:19;;;;;;;15.00;6.22;;;6.60;99.90;;;;;;4967630;28;20035;-73
2022/11/26 05:07:45;;;;;;;18.15;6.28;;;6.60;99.90;;;;;;4965623;28;20536;-73
2022/11/26 05:10:11;;;;;;;14.50;6.28;;;6.50;99.90;;;;;;4966642;28;20034;-72
2022/11/26 05:12:37;;;;;;;15.77;6.15;;;6.40;99.90;;;;;;4965453;28;20084;-73
2022/11/26 05:15:03;;;;;;;10.77;6.20;;;6.50;99.90;;;;;;4966230;28;20030;-72
2022/11/26 05:17:29;;;;;;;19.92;6.40;;;6.50;99.90;;;;;;4962111;28;20247;-73
2022/11/26 05:19:55;;;;;;;17.35;6.10;;;6.60;99.90;;;;;;4956126;28;20038;-72
2022/11/26 05:22:21;;;;;;;21.88;6.28;;;6.50;99.90;;;;;;4961848;28;20046;-73
2022/11/26 05:24:46;;;;;;;17.05;4.93;;;6.40;99.90;;;;;;4945450;28;20058;-72
2022/11/26 05:27:12;;;;;;;16.67;5.85;;;6.50;99.90;;;;;;4972239;28;20046;-73
2022/11/26 05:29:37;;;;;;;12.73;5.15;;;6.50;99.90;;;;;;4976105;28;20415;-72
2022/11/26 05:32:03;;;;;;;16.33;5.80;;;6.60;99.90;;;;;;4960505;28;20114;-72
2022/11/26 05:34:29;;;;;;;16.33;5.13;;;6.70;99.90;;;;;;4954350;28;20098;-72
2022/11/26 05:36:55;;;;;;;15.02;5.20;;;6.80;99.90;;;;;;4961441;28;20432;-73
2022/11/26 05:39:21;;;;;;;14.85;5.15;;;6.90;99.90;;;;;;4962368;28;20051;-73
2022/11/26 05:41:47;;;;;;;16.15;5.68;;;6.90;99.90;;;;;;4962920;28;20027;-72
2022/11/26 05:44:12;;;;;;;15.40;5.28;;;6.80;99.90;;;;;;4957333;28;20039;-73
2022/11/26 05:46:40;;;;;;;16.75;4.95;;;6.70;99.90;;;;;;4972488;28;20034;-73
2022/11/26 05:49:06;;;;;;;15.70;4.68;;;6.70;99.90;;;;;;4973982;28;20029;-72
2022/11/26 05:51:32;;;;;;;11.95;4.35;;;6.80;99.90;;;;;;4970911;28;20086;-73
2022/11/26 05:53:57;;;;;;;10.88;4.30;;;6.90;99.90;;;;;;4962248;28;20113;-73
2022/11/26 05:56:23;;;;;;;13.15;4.45;;;7.00;99.90;;;;;;4956365;28;20035;-72
2022/11/26 05:58:49;;;;;;;13.07;4.28;;;7.00;99.90;;;;;;4961868;28;20182;-73
2022/11/26 06:01:14;;;;;;;18.00;4.47;;;7.00;99.90;;;;;;4956535;28;20023;-73
2022/11/26 06:03:40;;;;;;;13.65;4.22;;;7.00;99.90;;;;;;4958971;28;20479;-73
2022/11/26 06:06:06;;;;;;;17.25;4.15;;;7.00;99.90;;;;;;4963576;28;20423;-73
2022/11/26 06:08:33;;;;;;;10.10;3.63;;;7.10;99.90;;;;;;4957548;28;20041;-73
2022/11/26 06:10:58;;;;;;;14.75;3.97;;;7.10;99.90;;;;;;4961883;28;20033;-72
2022/11/26 06:13:24;;;;;;;11.13;4.25;;;7.20;99.90;;;;;;4959996;28;20431;-73
2022/11/26 06:15:49;;;;;;;15.32;4.63;;;7.20;99.90;;;;;;4959287;28;20042;-73
2022/11/26 06:18:16;;;;;;;15.90;4.80;;;7.20;99.90;;;;;;4960331;28;20042;-73
2022/11/26 06:20:41;;;;;;;19.60;4.10;;;7.30;99.90;;;;;;4960409;28;20031;-73
2022/11/26 06:23:07;;;;;;;13.45;3.65;;;7.30;99.90;;;;;;4960024;28;20812;-73
2022/11/26 06:25:32;;;;;;;9.63;3.97;;;7.30;99.90;;;;;;4950370;28;20132;-72
2022/11/26 06:27:58;;;;;;;10.68;4.03;;;7.30;99.90;;;;;;4965663;28;20038;-72
2022/11/26 06:30:24;;;;;;;11.73;4.03;;;7.30;99.90;;;;;;4958251;28;20468;-73
2022/11/26 06:32:49;;;;;;;11.05;3.60;;;7.40;99.90;;;;;;4959725;28;20038;-73
2022/11/26 06:35:15;;;;;;;19.75;4.88;;;7.50;99.90;;;;;;4959854;28;20423;-73
2022/11/26 06:37:41;;;;;;;15.55;4.35;;;7.50;99.90;;;;;;4957624;28;20027;-72
2022/11/26 06:40:08;;;;;;;12.38;4.43;;;7.60;99.90;;;;;;4956497;28;20101;-72
2022/11/26 06:42:33;;;;;;;14.65;4.30;;;7.60;99.90;;;;;;4960021;28;20491;-72
2022/11/26 06:44:59;;;;;;;10.05;3.75;;;7.50;99.90;;;;;;4958565;28;20026;-72
2022/11/26 06:47:25;;;;;;;16.27;3.60;;;7.50;99.90;;;;;;4954403;28;20031;-73
2022/11/26 06:49:50;;;;;;;17.70;4.00;;;7.60;99.90;;;;;;4954798;28;20035;-72
2022/11/26 06:52:16;;;;;;;14.15;3.28;;;7.60;99.90;;;;;;4953983;28;20510;-72
2022/11/26 06:54:42;;;;;;;11.15;3.08;;;7.60;99.90;;;;;;4951299;28;20030;-72
2022/11/26 06:57:07;;;;;;;11.60;2.92;;;7.70;99.90;;;;;;4959631;28;20027;-72
2022/11/26 06:59:33;;;;;;;10.68;3.00;;;7.70;99.90;;;;;;4958555;28;20052;-73
2022/11/26 07:01:58;;;;;;;9.10;3.45;;;7.70;99.90;;;;;;4957818;28;20026;-73
2022/11/26 07:04:24;;;;;;;8.60;4.20;;;7.70;99.90;;;;;;4961593;28;20027;-73
2022/11/26 07:06:49;;;;;;;7.38;3.15;;;7.60;99.90;;;;;;4955173;28;20380;-73
2022/11/26 07:09:15;;;;;;;14.77;3.80;;;7.70;99.90;;;;;;4949839;28;20107;-72
2022/11/26 07:11:41;;;;;;;12.82;3.75;;;7.60;99.90;;;;;;4955006;28;20046;-73
2022/11/26 07:14:07;;;;;;;11.20;2.92;;;7.70;99.90;;;;;;4960011;28;20570;-72
2022/11/26 07:16:34;;;;;;;14.45;3.40;;;7.60;99.90;;;;;;4953191;28;20125;-73
2022/11/26 07:19:00;;;;;;;11.48;2.75;;;7.60;99.90;;;;;;4950898;28;20455;-72
2022/11/26 07:21:27;;;;;;;7.40;2.38;;;7.50;99.90;;;;;;4959344;28;20034;-72
2022/11/26 07:23:53;;;;;;;10.15;3.08;;;7.50;99.90;;;;;;4958972;28;20031;-73
2022/11/26 07:26:20;;;;;;;13.90;2.83;;;7.50;99.90;;;;;;4954879;28;20525;-73
2022/11/26 07:28:46;;;;;;;19.25;4.30;;;7.40;99.90;;;;;;4944392;28;20510;-72
2022/11/26 07:31:15;;;;;;;18.48;2.80;;;7.40;99.90;;;;;;4944961;28;20038;-72
2022/11/26 07:33:41;;;;;;;14.27;3.05;;;7.40;99.90;;;;;;4944486;28;20030;-73
2022/11/26 07:36:17;;;;;;;9.57;2.47;;;7.40;99.90;;;;;;4950739;28;20242;-72
2022/11/26 07:38:43;;;;;;;7.50;2.30;;;7.50;99.90;;;;;;4947365;28;20105;-73
2022/11/26 07:41:11;;;;;;;15.30;2.75;;;7.50;99.90;;;;;;4949764;28;20603;-73
2022/11/26 07:43:38;;;;;;;15.48;3.40;;;7.50;99.90;;;;;;4952480;28;20129;-73
2022/11/26 07:46:05;;;;;;;12.93;3.13;;;7.60;99.90;;;;;;4954591;28;20039;-72
2022/11/26 07:48:32;;;;;;;17.80;3.10;;;7.80;99.90;;;;;;4959077;28;20122;-72
2022/11/26 07:50:59;;;;;;;18.13;3.03;;;7.90;99.90;;;;;;4956163;28;20488;-72
2022/11/26 07:53:28;;;;;;;15.23;3.80;;;8.00;99.90;;;;;;4959227;28;20577;-73
2022/11/26 07:55:53;;;;;;;18.50;3.05;;;8.10;99.90;;;;;;4960194;28;20500;-72
2022/11/26 07:58:19;;;;;;;21.42;2.92;;;8.10;99.90;;;;;;4957899;28;20166;-72
2022/11/26 08:00:45;;;;;;;13.77;3.15;;;8.20;99.90;;;;;;4957716;28;20042;-73
2022/11/26 08:03:11;;;;;;;12.25;3.15;;;8.30;99.90;;;;;;4956224;28;20391;-73
2022/11/26 08:05:45;;;;;;;17.60;3.45;;;8.30;99.90;;;;;;4948763;28;20498;-73
2022/11/26 08:08:11;;;;;;;18.45;3.58;;;8.30;99.90;;;;;;4953548;28;20026;-73
2022/11/26 08:10:38;;;;;;;20.75;3.03;;;8.40;99.90;;;;;;4954813;28;20478;-73
2022/11/26 08:13:04;;;;;;;15.57;3.58;;;8.50;99.90;;;;;;4952958;28;20033;-73
2022/11/26 08:15:31;;;;;;;15.43;2.92;;;8.60;99.90;;;;;;4956447;28;20746;-72
2022/11/26 08:17:57;;;;;;;16.15;2.50;;;8.70;99.90;;;;;;4937671;28;20142;-73
2022/11/26 08:20:24;;;;;;;10.27;2.92;;;8.90;99.90;;;;;;4950118;28;20035;-73
2022/11/26 08:22:51;;;;;;;13.13;2.90;;;9.00;99.90;;;;;;4958812;28;20061;-73
2022/11/26 08:25:18;;;;;;;14.80;3.20;;;9.00;99.90;;;;;;4956022;28;20163;-73
2022/11/26 08:27:45;;;;;;;13.82;3.17;;;9.10;99.90;;;;;;4957641;28;20105;-73
2022/11/26 08:30:13;;;;;;;15.68;2.35;;;9.10;99.90;;;;;;4956842;28;20031;-73
2022/11/26 08:32:39;;;;;;;19.90;2.72;;;9.30;99.90;;;;;;4945790;28;20035;-73
2022/11/26 08:35:04;;;;;;;16.80;2.20;;;9.50;99.90;;;;;;4947969;28;20553;-73
2022/11/26 08:37:30;;;;;;;14.98;2.40;;;9.80;99.90;;;;;;4947733;28;20042;-73
2022/11/26 08:39:56;;;;;;;20.60;2.85;;;9.90;99.90;;;;;;4946355;28;20035;-73
2022/11/26 08:42:21;;;;;;;19.90;2.13;;;10.00;99.90;;;;;;4949524;28;20047;-74
2022/11/26 08:44:47;;;;;;;17.88;2.20;;;10.20;99.90;;;;;;4948374;28;20046;-72
2022/11/26 08:47:13;;;;;;;12.35;2.20;;;10.50;99.90;;;;;;4950731;28;20082;-73
2022/11/26 08:49:38;;;;;;;17.48;2.58;;;10.70;99.90;;;;;;4953370;28;20083;-72
2022/11/26 08:52:04;;;;;;;17.80;2.65;;;10.80;99.90;;;;;;4949182;28;20538;-72
2022/11/26 08:54:30;;;;;;;19.65;2.75;;;10.80;99.90;;;;;;4948206;28;20042;-72
2022/11/26 08:56:55;;;;;;;14.85;2.13;;;10.80;99.90;;;;;;4953702;28;20063;-72
2022/11/26 08:59:23;;;;;;;14.68;2.40;;;10.80;99.90;;;;;;4954621;28;20050;-72
2022/11/26 09:01:49;;;;;;;14.43;2.30;;;10.90;99.90;;;;;;4953571;28;20871;-72
2022/11/26 09:04:15;;;;;;;14.43;2.60;;;11.00;99.90;;;;;;4952223;28;20067;-73
2022/11/26 09:06:40;;;;;;;18.35;2.40;;;11.60;99.90;;;;;;4953079;28;20031;-73
2022/11/26 09:09:13;;;;;;;15.15;2.00;;;12.20;99.90;;;;;;4952684;28;20027;-73
2022/11/26 09:11:42;;;;;;;12.93;1.92;;;12.60;98.40;;;;;;4959205;28;20162;-73
2022/11/26 09:14:09;;;;;;;18.33;1.70;;;13.00;97.20;;;;;;4957829;28;20498;-73
2022/11/26 09:16:35;;;;;;;18.05;2.08;;;13.10;96.60;;;;;;4955058;28;20082;-73
2022/11/26 09:19:04;;;;;;;14.60;2.05;;;13.10;96.90;;;;;;4957063;28;20575;-72
2022/11/26 09:21:31;;;;;;;13.77;2.20;;;13.00;96.30;;;;;;4959043;28;20034;-73
2022/11/26 09:23:56;;;;;;;13.88;1.65;;;12.90;96.70;;;;;;4944833;28;20066;-72
2022/11/26 09:26:23;;;;;;;19.58;2.47;;;12.90;96.80;;;;;;4955186;28;20073;-73
2022/11/26 09:28:49;;;;;;;12.25;1.73;;;13.10;96.10;;;;;;4962545;28;20046;-73
2022/11/26 09:31:15;;;;;;;23.90;2.75;;;13.30;95.20;;;;;;4945723;28;20451;-72
2022/11/26 09:33:41;;;;;;;12.68;1.98;;;13.70;95.00;;;;;;4955515;28;20186;-73
2022/11/26 09:36:10;;;;;;;14.35;1.95;;;14.00;93.40;;;;;;4962435;28;20035;-73
2022/11/26 09:38:36;;;;;;;16.38;2.00;;;14.20;93.20;;;;;;4957358;28;21041;-73
2022/11/26 09:41:20;;;;;;;14.90;1.75;;;14.40;93.80;;;;;;4958953;28;20043;-73
2022/11/26 09:44:03;;;;;;;14.18;2.05;;;14.30;92.70;;;;;;4958253;28;20023;-72
2022/11/26 09:46:56;;;;;;;18.40;2.28;;;14.10;93.10;;;;;;4959034;28;20026;-73
2022/11/26 09:49:22;;;;;;;18.05;2.08;;;14.40;92.50;;;;;;4956225;28;20035;-73
2022/11/26 09:51:51;;;;;;;17.17;2.70;;;14.50;92.10;;;;;;4957833;28;20026;-73
2022/11/26 09:54:21;;;;;;;12.52;2.20;;;14.30;91.40;;;;;;4957749;28;20027;-73
2022/11/26 09:56:52;;;;;;;13.90;2.47;;;14.30;92.50;;;;;;4961216;28;20386;-73
2022/11/26 09:59:21;;;;;;;16.23;2.33;;;14.20;91.60;;;;;;4942814;28;20125;-73
2022/11/26 10:01:47;;;;;;;16.65;2.08;;;14.20;92.60;;;;;;4958889;28;20023;-73
2022/11/26 10:04:28;;;;;;;15.02;2.08;;;14.30;91.70;;;;;;4960315;28;20058;-73
2022/11/26 10:07:19;;;;;;;14.65;1.77;;;14.30;91.30;;;;;;4958682;28;20057;-72
2022/11/26 10:10:08;;;;;;;17.73;2.20;;;14.10;92.20;;;;;;4955315;28;20059;-73
2022/11/26 10:12:59;;;;;;;17.13;1.80;;;14.00;93.00;;;;;;4951438;28;20038;-73
2022/11/26 10:15:37;;;;;;;13.55;1.63;;;13.90;92.20;;;;;;4953952;28;20069;-72
2022/11/26 10:18:34;;;;;;;11.10;1.73;;;13.80;92.20;;;;;;4959132;28;20042;-72
2022/11/26 10:21:18;;;;;;;14.85;2.00;;;14.00;93.40;;;;;;4952291;28;20537;-72
2022/11/26 10:23:47;;;;;;;15.55;2.05;;;14.00;92.60;;;;;;4954473;28;20030;-72
2022/11/26 10:26:26;;;;;;;20.48;2.17;;;14.00;92.10;;;;;;4954430;28;20118;-73
2022/11/26 10:29:12;;;;;;;8.48;1.38;;;14.10;90.10;;;;;;4946520;28;20120;-72
2022/11/26 10:31:41;;;;;;;14.68;2.03;;;14.00;90.90;;;;;;4953521;28;20102;-72
2022/11/26 10:34:17;;;;;;;15.48;1.92;;;14.10;91.90;;;;;;4952110;28;20035;-72
2022/11/26 10:36:45;;;;;;;9.45;1.88;;;14.00;91.80;;;;;;4945403;28;20431;-72
2022/11/26 10:39:17;;;;;;;18.58;2.35;;;14.00;91.90;;;;;;4955826;28;20046;-72
2022/11/26 10:41:43;;;;;;;9.25;1.80;;;13.90;91.60;;;;;;4958279;28;20134;-72
2022/11/26 10:44:28;;;;;;;9.80;1.50;;;13.90;91.50;;;;;;4955664;28;20023;-72
2022/11/26 10:46:54;;;;;;;15.20;1.80;;;14.00;92.10;;;;;;4956904;28;20041;-72
2022/11/26 10:49:28;;;;;;;12.02;1.67;;;14.20;91.60;;;;;;4955331;28;20093;-72
2022/11/26 10:52:00;;;;;;;12.43;1.83;;;14.40;91.50;;;;;;4957288;28;20118;-72
2022/11/26 10:54:37;;;;;;;11.63;1.90;;;14.30;90.70;;;;;;4954574;28;20030;-72
2022/11/26 10:57:15;;;;;;;10.90;1.75;;;14.40;89.80;;;;;;4953454;28;20117;-71
2022/11/26 10:59:50;;;;;;;8.45;1.30;;;14.50;90.80;;;;;;4950671;28;20502;-72
2022/11/26 11:02:27;;;;;;;11.90;1.67;;;14.60;90.10;;;;;;4958437;28;20121;-72
2022/11/26 11:04:55;;;;;;;13.95;2.08;;;14.60;90.20;;;;;;4956434;28;21038;-72
2022/11/26 11:07:42;;;;;;;12.07;1.45;;;14.50;88.10;;;;;;4956225;28;20078;-72
2022/11/26 11:10:08;;;;;;;15.45;1.70;;;14.50;90.00;;;;;;4953979;28;20027;-71
2022/11/26 11:12:35;;;;;;;9.82;1.40;;;14.80;89.40;;;;;;4961127;28;20037;-71
2022/11/26 11:15:23;;;;;;;10.55;1.80;;;14.70;89.00;;;;;;4941843;28;20045;-71
2022/11/26 11:18:01;;;;;;;11.75;1.65;;;14.80;89.60;;;;;;4957640;28;20043;-72
2022/11/26 11:20:39;;;;;;;14.25;1.75;;;14.90;89.50;;;;;;4961629;28;20093;-71
2022/11/26 11:23:26;;;;;;;9.23;1.45;;;14.60;87.00;;;;;;4953212;28;20027;-72
2022/11/26 11:26:00;;;;;;;11.88;1.50;;;14.30;89.70;;;;;;4956861;28;20041;-70
2022/11/26 11:28:31;;;;;;;12.52;1.63;;;14.10;90.50;;;;;;4957619;28;20438;-71
2022/11/26 11:31:14;;;;;;;13.68;1.60;;;14.00;91.90;;;;;;4959575;28;20044;-71
2022/11/26 11:33:40;;;;;;;18.10;2.10;;;13.90;91.50;;;;;;4950798;28;20043;-72
2022/11/26 11:36:15;;;;;;;12.15;1.67;;;14.00;91.40;;;;;;4942708;28;20363;-71
2022/11/26 11:38:49;;;;;;;17.83;1.85;;;13.90;92.50;;;;;;4949234;28;20032;-72
2022/11/26 11:41:28;;;;;;;18.38;1.80;;;14.00;91.40;;;;;;4959674;28;20046;-71
2022/11/26 11:44:22;;;;;;;15.07;2.45;;;14.10;91.90;;;;;;4962229;28;20031;-71
2022/11/26 11:47:09;;;;;;;11.13;1.70;;;14.30;90.60;;;;;;4960786;28;20030;-71
2022/11/26 11:49:59;;;;;;;8.68;1.40;;;14.20;90.70;;;;;;4954616;28;20098;-71
2022/11/26 11:52:40;;;;;;;9.45;1.60;;;14.20;91.80;;;;;;4958573;28;20038;-72
2022/11/26 11:55:14;;;;;;;10.35;1.48;;;14.00;92.20;;;;;;4954385;28;20613;-72
2022/11/26 11:58:04;;;;;;;16.02;1.38;;;13.90;92.20;;;;;;4957244;28;20867;-71
2022/11/26 12:00:50;;;;;;;14.15;1.45;;;13.70;91.90;;;;;;4949204;28;20050;-72
2022/11/26 12:03:50;;;;;;;10.80;1.40;;;13.70;93.10;;;;;;4949497;28;20118;-71
2022/11/26 12:06:38;;;;;;;13.82;1.80;;;13.70;92.80;;;;;;4949950;28;20026;-72
2022/11/26 12:09:22;;;;;;;11.57;2.00;;;13.70;92.80;;;;;;4955007;28;20049;-71
2022/11/26 12:12:16;;;;;;;18.58;1.73;;;13.60;92.90;;;;;;4953508;28;20030;-72
2022/11/26 12:14:48;;;;;;;13.55;2.70;;;13.50;92.50;;;;;;4952664;28;20055;-72
2022/11/26 12:17:21;;;;;;;10.20;1.70;;;13.60;93.10;;;;;;4958371;28;20078;-71
2022/11/26 12:19:56;;;;;;;13.85;1.45;;;13.60;93.20;;;;;;4952214;28;20980;-72
2022/11/26 12:22:38;;;;;;;13.05;1.42;;;13.60;92.40;;;;;;4958874;28;20085;-71
2022/11/26 12:25:18;;;;;;;11.93;1.70;;;13.50;92.50;;;;;;4953640;28;20046;-71
2022/11/26 12:27:51;;;;;;;11.52;1.90;;;13.50;92.70;;;;;;4953385;28;20101;-72
2022/11/26 12:30:21;;;;;;;16.20;1.52;;;13.50;92.80;;;;;;4954831;28;20045;-72
2022/11/26 12:33:10;;;;;;;17.10;1.90;;;13.60;92.10;;;;;;4948136;28;20030;-72
2022/11/26 12:35:42;;;;;;;7.93;1.20;;;13.70;92.50;;;;;;4947817;28;21039;-73
2022/11/26 12:38:23;;;;;;;13.88;2.38;;;13.60;92.00;;;;;;4942127;28;20035;-71
2022/11/26 12:40:56;;;;;;;;;;;13.50;92.50;;;;;;4943900;28;20046;-72
2022/11/26 12:43:41;;;;;;;12.70;1.52;;;13.60;92.90;;;;;;4946194;28;19968;-71
2022/11/26 12:46:16;;;;;;;11.85;1.65;;;13.50;93.10;;;;;;4949613;28;20041;-72
2022/11/26 12:48:47;;;;;;;12.50;1.38;;;13.50;93.80;;;;;;4961802;28;20524;-72
2022/11/26 12:51:20;;;;;;;;;;;13.50;93.70;;;;;;4960137;28;20042;-71
2022/11/26 12:54:10;;;;;;;12.73;1.45;;;13.40;93.90;;;;;;4962945;28;19918;-71
2022/11/26 12:56:41;;;;;;;18.60;1.60;;;13.30;93.70;;;;;;4951030;28;20058;-72
2022/11/26 12:59:30;;;;;;;9.20;1.50;;;13.20;94.00;;;;;;4960003;28;20038;-72
2022/11/26 13:01:56;;;;;;;14.82;1.38;;;13.20;94.50;;;;;;4963249;28;20038;-71